createdAt,value
2023-02-22T00:00:49.922Z,39.93
2023-02-22T00:03:25.020Z,44.47
2023-02-22T00:05:55.339Z,38.70
2023-02-22T00:08:26.093Z,43.60
2023-02-22T00:10:55.669Z,41.83
2023-02-22T00:13:24.102Z,44.77
2023-02-22T00:15:52.335Z,38.23
2023-02-22T00:18:20.757Z,39.67
2023-02-22T00:20:49.049Z,42.87
2023-02-22T00:23:20.100Z,39.03
2023-02-22T00:25:49.745Z,38.73
2023-02-22T00:28:20.018Z,40.70
2023-02-22T00:30:48.363Z,39.33
2023-02-22T00:33:17.542Z,36.53
2023-02-22T00:35:46.673Z,39.53
2023-02-22T00:38:17.313Z,41.93
2023-02-22T00:40:46.568Z,35.93
2023-02-22T00:43:15.270Z,37.00
2023-02-22T00:45:45.334Z,37.33
2023-02-22T00:48:13.660Z,38.20
2023-02-22T00:50:42.031Z,38.97
2023-02-22T00:53:10.439Z,39.63
2023-02-22T00:55:39.505Z,38.53
2023-02-22T00:58:08.488Z,38.57
2023-02-22T01:00:39.010Z,39.47
2023-02-22T01:03:10.568Z,39.77
2023-02-22T01:05:39.244Z,40.03
2023-02-22T01:08:10.021Z,40.70
2023-02-22T01:10:39.650Z,40.80
2023-02-22T01:13:09.714Z,42.27
2023-02-22T01:15:39.431Z,44.97
2023-02-22T01:18:08.947Z,44.53
2023-02-22T01:20:37.133Z,40.53
2023-02-22T01:23:08.267Z,37.57
2023-02-22T01:25:37.549Z,43.17
2023-02-22T01:28:07.805Z,44.10
2023-02-22T01:30:37.407Z,40.97
2023-02-22T01:33:09.094Z,40.27
2023-02-22T01:35:40.888Z,40.10
2023-02-22T01:38:09.624Z,40.80
2023-02-22T01:40:41.932Z,39.57
2023-02-22T01:43:20.041Z,39.53
2023-02-22T01:46:04.657Z,41.00
2023-02-22T01:48:42.176Z,39.93
2023-02-22T01:51:16.134Z,39.37
2023-02-22T01:53:51.293Z,40.20
2023-02-22T01:56:22.390Z,41.37
2023-02-22T01:58:54.957Z,41.33
2023-02-22T02:01:25.065Z,39.83
2023-02-22T02:03:58.696Z,38.33
2023-02-22T02:06:29.029Z,39.87
2023-02-22T02:09:03.828Z,43.47
2023-02-22T02:11:33.479Z,43.90
2023-02-22T02:14:01.674Z,41.50
2023-02-22T02:16:39.007Z,42.27
2023-02-22T02:19:16.059Z,43.93
2023-02-22T02:22:13.913Z,43.03
2023-02-22T02:27:54.091Z,45.90
2023-02-22T02:30:48.542Z,48.30
2023-02-22T02:33:23.579Z,40.67
2023-02-22T02:35:59.271Z,44.50
2023-02-22T02:38:35.301Z,43.87
2023-02-22T02:41:12.253Z,50.50
2023-02-22T02:43:47.251Z,46.40
2023-02-22T02:46:19.671Z,42.37
2023-02-22T02:48:54.969Z,47.13
2023-02-22T02:51:25.149Z,44.50
2023-02-22T02:53:54.688Z,47.40
2023-02-22T02:56:23.540Z,44.83
2023-02-22T02:58:53.773Z,49.20
2023-02-22T03:01:46.509Z,45.30
2023-02-22T03:04:25.780Z,53.33
2023-02-22T03:07:21.975Z,48.47
2023-02-22T03:10:04.053Z,52.13
2023-02-22T03:12:45.418Z,46.83
2023-02-22T03:15:26.355Z,50.97
2023-02-22T03:18:01.458Z,53.97
2023-02-22T03:20:34.537Z,51.87
2023-02-22T03:23:08.268Z,48.97
2023-02-22T03:25:41.383Z,50.00
2023-02-22T03:28:13.070Z,49.47
2023-02-22T03:30:46.000Z,47.50
2023-02-22T03:33:20.545Z,46.50
2023-02-22T03:35:56.786Z,50.77
2023-02-22T03:38:29.182Z,54.20
2023-02-22T03:41:01.854Z,58.23
2023-02-22T03:43:34.135Z,50.90
2023-02-22T03:46:04.326Z,50.97
2023-02-22T03:48:40.542Z,48.13
2023-02-22T03:51:10.182Z,48.80
2023-02-22T03:53:38.230Z,45.93
2023-02-22T03:56:08.947Z,48.90
2023-02-22T03:58:39.157Z,46.13
2023-02-22T04:01:07.396Z,48.33
2023-02-22T04:03:35.481Z,54.43
2023-02-22T04:06:03.852Z,55.20
2023-02-22T04:08:33.698Z,46.17
2023-02-22T04:11:01.642Z,48.47
2023-02-22T04:13:29.981Z,52.67
2023-02-22T04:15:57.969Z,53.70
2023-02-22T04:18:26.083Z,46.73
2023-02-22T04:20:54.094Z,58.00
2023-02-22T04:23:22.510Z,49.80
2023-02-22T04:25:52.130Z,54.13
2023-02-22T04:28:20.369Z,48.60
2023-02-22T04:30:48.523Z,52.93
2023-02-22T04:33:16.962Z,53.73
2023-02-22T04:35:45.452Z,52.87
2023-02-22T04:38:13.385Z,52.93
2023-02-22T04:40:41.279Z,50.87
2023-02-22T04:43:10.540Z,47.93
2023-02-22T04:45:38.503Z,52.37
2023-02-22T04:48:06.724Z,54.50
2023-02-22T04:50:34.685Z,52.00
2023-02-22T04:53:02.820Z,52.33
2023-02-22T04:55:30.727Z,51.20
2023-02-22T04:57:58.758Z,49.07
2023-02-22T05:00:28.410Z,54.53
2023-02-22T05:02:56.414Z,54.80
2023-02-22T05:05:24.913Z,54.53
2023-02-22T05:07:53.404Z,55.90
2023-02-22T05:10:21.562Z,52.87
2023-02-22T05:12:49.498Z,57.07
2023-02-22T05:15:18.835Z,53.77
2023-02-22T05:17:48.577Z,50.63
2023-02-22T05:20:22.766Z,52.93
2023-02-22T05:22:52.000Z,52.50
2023-02-22T05:25:21.442Z,56.70
2023-02-22T05:27:52.267Z,51.10
2023-02-22T05:30:20.772Z,53.57
2023-02-22T05:32:49.989Z,55.50
2023-02-22T05:35:18.928Z,51.10
2023-02-22T05:37:46.963Z,55.53
2023-02-22T05:40:15.478Z,51.30
2023-02-22T05:42:43.391Z,55.37
2023-02-22T05:45:14.413Z,53.10
2023-02-22T05:47:42.699Z,51.80
2023-02-22T05:50:12.371Z,54.23
2023-02-22T05:52:40.368Z,52.07
2023-02-22T05:55:10.081Z,50.00
2023-02-22T05:57:38.082Z,46.40
2023-02-22T06:00:08.863Z,51.40
2023-02-22T06:02:36.877Z,48.07
2023-02-22T06:05:05.095Z,46.93
2023-02-22T06:07:34.443Z,43.83
2023-02-22T06:10:02.486Z,48.10
2023-02-22T06:12:30.345Z,43.20
2023-02-22T06:14:58.363Z,47.87
2023-02-22T06:17:26.321Z,41.90
2023-02-22T06:19:54.207Z,44.37
2023-02-22T06:22:22.171Z,44.87
2023-02-22T06:24:52.953Z,43.03
2023-02-22T06:27:22.348Z,43.80
2023-02-22T06:29:50.288Z,43.43
2023-02-22T06:32:18.263Z,40.43
2023-02-22T06:34:46.259Z,41.37
2023-02-22T06:37:14.148Z,42.80
2023-02-22T06:39:42.110Z,41.57
2023-02-22T06:42:11.428Z,46.47
2023-02-22T06:44:39.370Z,45.20
2023-02-22T06:47:07.443Z,46.00
2023-02-22T06:49:35.582Z,43.77
2023-02-22T06:52:06.882Z,44.23
2023-02-22T06:54:35.024Z,46.93
2023-02-22T06:57:02.981Z,51.80
2023-02-22T06:59:32.233Z,55.10
2023-02-22T07:02:00.161Z,51.87
2023-02-22T07:04:28.545Z,42.73
2023-02-22T07:06:56.538Z,41.87
2023-02-22T07:09:24.574Z,46.73
2023-02-22T07:11:52.571Z,36.63
2023-02-22T07:14:20.669Z,41.23
2023-02-22T07:16:50.003Z,38.10
2023-02-22T07:19:17.954Z,33.40
2023-02-22T07:21:47.957Z,34.33
2023-02-22T07:24:16.058Z,32.67
2023-02-22T07:26:44.344Z,29.33
2023-02-22T07:29:12.363Z,36.80
2023-02-22T07:31:40.697Z,34.90
2023-02-22T07:34:10.037Z,35.90
2023-02-22T07:36:38.018Z,34.83
2023-02-22T07:39:08.775Z,36.63
2023-02-22T07:41:36.815Z,31.67
2023-02-22T07:44:04.970Z,31.93
2023-02-22T07:46:34.037Z,32.63
2023-02-22T07:49:03.476Z,37.40
2023-02-22T07:51:32.856Z,31.50
2023-02-22T07:54:01.844Z,31.37
2023-02-22T07:56:30.108Z,35.13
2023-02-22T07:58:58.086Z,33.90
2023-02-22T08:01:27.059Z,30.60
2023-02-22T08:03:56.504Z,32.97
2023-02-22T08:06:26.177Z,29.97
2023-02-22T08:08:55.658Z,33.57
2023-02-22T08:11:23.713Z,37.27
2023-02-22T08:13:52.127Z,41.93
2023-02-22T08:16:20.462Z,42.33
2023-02-22T08:18:48.597Z,39.20
2023-02-22T08:21:19.019Z,45.57
2023-02-22T08:23:54.306Z,40.43
2023-02-22T08:26:25.674Z,41.17
2023-02-22T08:28:54.022Z,47.50
2023-02-22T08:31:21.989Z,39.70
2023-02-22T08:33:52.962Z,39.00
2023-02-22T08:36:21.170Z,36.10
2023-02-22T08:38:49.273Z,37.53
2023-02-22T08:41:17.632Z,38.77
2023-02-22T08:43:47.287Z,37.80
2023-02-22T08:46:15.769Z,39.13
2023-02-22T08:48:51.330Z,37.17
2023-02-22T08:51:19.533Z,36.90
2023-02-22T08:53:47.604Z,36.27
2023-02-22T08:56:15.545Z,37.30
2023-02-22T08:58:43.710Z,42.40
2023-02-22T09:01:19.205Z,41.53
2023-02-22T09:03:49.982Z,41.10
2023-02-22T09:06:18.115Z,37.80
2023-02-22T09:08:46.126Z,32.67
2023-02-22T09:11:14.271Z,33.93
2023-02-22T09:13:42.701Z,31.60
2023-02-22T09:16:12.331Z,29.80
2023-02-22T09:18:44.333Z,30.07
2023-02-22T09:21:13.701Z,32.53
2023-02-22T09:23:42.496Z,29.23
2023-02-22T09:26:11.435Z,29.17
2023-02-22T09:28:39.443Z,31.47
2023-02-22T09:31:07.431Z,29.20
2023-02-22T09:33:36.919Z,31.60
2023-02-22T09:36:06.942Z,30.67
2023-02-22T09:38:35.103Z,32.73
2023-02-22T09:41:13.176Z,38.07
2023-02-22T09:43:49.350Z,37.20
2023-02-22T09:46:27.892Z,31.20
2023-02-22T09:49:05.410Z,33.07
2023-02-22T09:51:40.311Z,30.00
2023-02-22T09:54:17.679Z,36.20
2023-02-22T09:56:48.000Z,37.13
2023-02-22T09:59:23.557Z,38.97
2023-02-22T10:01:59.659Z,38.60
2023-02-22T10:04:41.396Z,41.97
2023-02-22T10:07:18.282Z,40.70
2023-02-22T10:09:51.249Z,45.83
2023-02-22T10:12:29.569Z,38.83
2023-02-22T10:15:31.945Z,45.23
2023-02-22T10:18:33.915Z,46.87
2023-02-22T10:21:10.117Z,46.47
2023-02-22T10:23:47.896Z,47.73
2023-02-22T10:26:18.137Z,42.33
2023-02-22T10:28:55.166Z,50.37
2023-02-22T10:31:26.977Z,53.60
2023-02-22T10:33:58.916Z,43.60
2023-02-22T10:36:31.229Z,50.40
2023-02-22T10:39:01.041Z,44.30
2023-02-22T10:41:32.002Z,40.27
2023-02-22T10:44:00.516Z,43.90
2023-02-22T10:46:30.428Z,44.07
2023-02-22T10:49:04.487Z,49.50
2023-02-22T10:51:34.222Z,41.83
2023-02-22T10:54:24.109Z,43.53
2023-02-22T10:56:55.675Z,53.70
2023-02-22T10:59:34.171Z,46.10
2023-02-22T11:02:03.003Z,51.33
2023-02-22T11:04:47.063Z,46.50
2023-02-22T11:07:24.446Z,46.13
2023-02-22T11:09:55.327Z,43.80
2023-02-22T11:12:29.044Z,50.37
2023-02-22T11:14:57.779Z,40.97
2023-02-22T11:17:39.355Z,38.73
2023-02-22T11:20:25.252Z,44.60
2023-02-22T11:22:56.415Z,40.63
2023-02-22T11:25:31.844Z,44.17
2023-02-22T11:28:09.372Z,40.60
2023-02-22T11:30:38.445Z,43.20
2023-02-22T11:33:23.220Z,41.90
2023-02-22T11:35:53.316Z,42.20
2023-02-22T11:38:24.351Z,39.23
2023-02-22T11:41:15.783Z,35.47
2023-02-22T11:43:45.161Z,38.60
2023-02-22T11:46:15.074Z,38.63
2023-02-22T11:48:57.330Z,37.13
2023-02-22T11:51:41.340Z,32.70
2023-02-22T11:54:44.247Z,30.53
2023-02-22T11:57:22.476Z,36.33
2023-02-22T12:00:07.624Z,26.93
2023-02-22T12:02:58.328Z,28.23
2023-02-22T12:05:42.695Z,34.13
2023-02-22T12:08:21.846Z,24.57
2023-02-22T12:11:03.501Z,23.33
2023-02-22T12:13:44.782Z,25.90
2023-02-22T12:16:22.387Z,27.53
2023-02-22T12:19:08.172Z,30.67
2023-02-22T12:21:40.633Z,26.87
2023-02-22T12:24:14.479Z,29.00
2023-02-22T12:26:47.546Z,33.67
2023-02-22T12:29:26.090Z,26.97
2023-02-22T12:32:00.503Z,30.73
2023-02-22T12:34:32.743Z,32.20
2023-02-22T12:37:06.914Z,32.17
2023-02-22T12:39:52.671Z,30.30
2023-02-22T12:42:31.106Z,26.30
2023-02-22T12:45:08.270Z,29.63
2023-02-22T12:47:43.660Z,26.90
2023-02-22T12:50:21.041Z,26.73
2023-02-22T12:52:54.424Z,27.30
2023-02-22T12:55:25.686Z,30.87
2023-02-22T12:58:03.470Z,31.57
2023-02-22T13:00:41.109Z,26.30
2023-02-22T13:03:27.160Z,27.87
2023-02-22T13:06:06.736Z,26.20
2023-02-22T13:08:42.552Z,25.30
2023-02-22T13:11:18.068Z,27.63
2023-02-22T13:13:57.598Z,29.77
2023-02-22T13:16:35.982Z,27.53
2023-02-22T13:19:12.605Z,27.07
2023-02-22T13:21:48.917Z,29.20
2023-02-22T13:24:22.671Z,28.43
2023-02-22T13:26:54.652Z,27.30
2023-02-22T13:29:29.692Z,35.93
2023-02-22T13:32:10.772Z,34.60
2023-02-22T13:35:01.667Z,35.80
2023-02-22T13:38:12.082Z,34.30
2023-02-22T13:41:04.882Z,37.97
2023-02-22T13:43:55.761Z,35.47
2023-02-22T13:46:46.254Z,33.83
2023-02-22T13:49:32.389Z,35.83
2023-02-22T13:52:02.582Z,39.90
2023-02-22T13:54:40.844Z,36.50
2023-02-22T13:57:21.044Z,36.90
2023-02-22T13:59:49.229Z,33.70
2023-02-22T14:02:56.101Z,31.87
2023-02-22T14:05:56.006Z,34.93
2023-02-22T14:08:42.938Z,34.77
2023-02-22T14:11:56.946Z,32.97
2023-02-22T14:14:25.764Z,32.90
2023-02-22T14:17:26.316Z,32.77
2023-02-22T14:20:32.064Z,33.07
2023-02-22T14:23:34.743Z,32.63
2023-02-22T14:26:13.744Z,31.23
2023-02-22T14:28:50.172Z,33.03
2023-02-22T14:31:34.876Z,36.30
2023-02-22T14:34:10.111Z,32.03
2023-02-22T14:36:51.483Z,32.07
2023-02-22T14:39:24.519Z,30.87
2023-02-22T14:42:01.523Z,32.03
2023-02-22T14:44:34.312Z,28.43
2023-02-22T14:47:06.541Z,31.50
2023-02-22T14:49:39.394Z,33.60
2023-02-22T14:52:19.947Z,31.80
2023-02-22T14:54:58.464Z,33.60
2023-02-22T14:57:33.110Z,35.87
2023-02-22T15:00:19.814Z,28.20
2023-02-22T15:02:49.090Z,26.80
2023-02-22T15:05:20.033Z,29.33
2023-02-22T15:07:57.805Z,29.57
2023-02-22T15:10:31.412Z,29.87
2023-02-22T15:13:11.025Z,27.40
2023-02-22T15:15:44.018Z,27.23
2023-02-22T15:18:27.172Z,30.30
2023-02-22T15:20:59.559Z,23.33
2023-02-22T15:23:33.321Z,31.30
2023-02-22T15:26:02.824Z,28.03
2023-02-22T15:28:32.128Z,30.27
2023-02-22T15:31:26.062Z,31.13
2023-02-22T15:33:55.772Z,35.03
2023-02-22T15:36:28.266Z,30.70
2023-02-22T15:38:57.876Z,31.13
2023-02-22T15:41:29.870Z,31.67
2023-02-22T15:44:14.235Z,29.33
2023-02-22T15:46:50.688Z,24.53
2023-02-22T15:49:23.217Z,29.80
2023-02-22T15:52:03.517Z,23.07
2023-02-22T15:54:43.205Z,29.20
2023-02-22T15:57:14.310Z,28.67
2023-02-22T15:59:46.932Z,30.00
2023-02-22T16:02:37.157Z,24.67
2023-02-22T16:05:08.883Z,33.93
2023-02-22T16:07:45.219Z,42.87
2023-02-22T16:10:33.666Z,34.23
2023-02-22T16:13:30.852Z,33.60
2023-02-22T16:16:02.952Z,41.07
2023-02-22T16:18:34.621Z,39.63
2023-02-22T16:21:13.422Z,39.47
2023-02-22T16:23:46.598Z,42.17
2023-02-22T16:26:23.726Z,59.27
2023-02-22T16:28:53.594Z,39.43
2023-02-22T16:31:25.130Z,37.07
2023-02-22T16:33:54.171Z,38.97
2023-02-22T16:36:26.046Z,40.83
2023-02-22T16:38:54.212Z,40.53
2023-02-22T16:41:23.656Z,36.97
2023-02-22T16:43:51.942Z,34.90
2023-02-22T16:46:20.927Z,37.30
2023-02-22T16:48:49.124Z,36.20
2023-02-22T16:51:21.820Z,39.93
2023-02-22T16:53:54.260Z,38.73
2023-02-22T16:56:30.528Z,36.83
2023-02-22T16:59:01.972Z,44.97
2023-02-22T17:01:30.507Z,35.77
2023-02-22T17:03:58.609Z,42.80
2023-02-22T17:06:26.704Z,43.13
2023-02-22T17:08:54.777Z,37.67
2023-02-22T17:11:24.172Z,45.07
2023-02-22T17:13:52.235Z,38.97
2023-02-22T17:16:20.571Z,38.73
2023-02-22T17:18:49.791Z,43.93
2023-02-22T17:21:18.023Z,39.57
2023-02-22T17:23:47.043Z,35.00
2023-02-22T17:26:16.238Z,37.50
2023-02-22T17:28:47.439Z,38.73
2023-02-22T17:31:22.355Z,35.80
2023-02-22T17:33:51.970Z,34.13
2023-02-22T17:36:21.124Z,34.80
2023-02-22T17:38:50.212Z,36.50
2023-02-22T17:41:20.374Z,35.80
2023-02-22T17:43:54.373Z,38.20
2023-02-22T17:46:23.269Z,45.20
2023-02-22T17:48:54.239Z,41.30
2023-02-22T17:51:23.983Z,42.00
2023-02-22T17:53:52.764Z,45.83
2023-02-22T17:56:25.266Z,44.47
2023-02-22T17:59:07.649Z,40.53
2023-02-22T18:01:39.420Z,44.07
2023-02-22T18:04:07.933Z,44.43
2023-02-22T18:06:44.521Z,39.60
2023-02-22T18:09:19.799Z,45.17
2023-02-22T18:11:52.406Z,40.87
2023-02-22T18:14:24.501Z,38.60
2023-02-22T18:16:53.054Z,41.90
2023-02-22T18:19:23.344Z,38.97
2023-02-22T18:21:52.488Z,48.00
2023-02-22T18:24:25.876Z,37.90
2023-02-22T18:26:54.720Z,43.00
2023-02-22T18:29:24.440Z,37.77
2023-02-22T18:31:54.131Z,40.67
2023-02-22T18:34:25.741Z,39.37
2023-02-22T18:36:54.794Z,38.97
2023-02-22T18:39:23.076Z,41.57
2023-02-22T18:41:51.297Z,39.40
2023-02-22T18:44:21.312Z,41.30
2023-02-22T18:46:50.789Z,45.37
2023-02-22T18:49:19.093Z,48.67
2023-02-22T18:51:47.682Z,51.23
2023-02-22T18:54:19.959Z,43.20
2023-02-22T18:56:47.914Z,42.77
2023-02-22T18:59:36.005Z,39.03
2023-02-22T19:02:05.749Z,40.57
2023-02-22T19:04:34.300Z,37.10
2023-02-22T19:07:02.444Z,45.03
2023-02-22T19:09:31.963Z,34.83
2023-02-22T19:11:59.894Z,35.20
2023-02-22T19:14:28.227Z,48.53
2023-02-22T19:17:42.834Z,43.00
2023-02-22T19:21:02.921Z,41.40
2023-02-22T19:23:34.473Z,43.30
2023-02-22T19:26:03.649Z,40.73
2023-02-22T19:28:35.053Z,36.87
2023-02-22T19:31:14.761Z,40.03
2023-02-22T19:33:44.297Z,38.77
2023-02-22T19:36:14.130Z,40.60
2023-02-22T19:38:42.973Z,37.00
2023-02-22T19:41:15.631Z,38.20
2023-02-22T19:43:44.183Z,42.73
2023-02-22T19:46:12.900Z,40.77
2023-02-22T19:48:42.035Z,43.20
2023-02-22T19:51:13.493Z,37.83
2023-02-22T19:53:46.404Z,36.23
2023-02-22T19:56:16.784Z,38.60
2023-02-22T19:58:46.694Z,42.10
2023-02-22T20:01:17.561Z,40.30
2023-02-22T20:03:45.953Z,39.17
2023-02-22T20:06:16.664Z,40.47
2023-02-22T20:08:45.235Z,38.47
2023-02-22T20:11:14.495Z,37.77
2023-02-22T20:13:43.750Z,39.87
2023-02-22T20:16:15.670Z,39.87
2023-02-22T20:18:44.340Z,39.27
2023-02-22T20:21:15.752Z,44.63
2023-02-22T20:23:45.960Z,41.27
2023-02-22T20:26:18.504Z,37.60
2023-02-22T20:28:47.137Z,35.70
2023-02-22T20:31:16.788Z,42.80
2023-02-22T20:33:47.185Z,39.83
2023-02-22T20:36:18.317Z,40.17
2023-02-22T20:38:48.219Z,36.07
2023-02-22T20:41:20.946Z,35.70
2023-02-22T20:43:55.191Z,38.57
2023-02-22T20:46:24.794Z,36.07
2023-02-22T20:48:59.141Z,39.83
2023-02-22T20:51:27.987Z,41.80
2023-02-22T20:53:59.919Z,35.27
2023-02-22T20:56:30.901Z,37.00
2023-02-22T20:59:00.717Z,38.67
2023-02-22T21:01:29.603Z,37.60
2023-02-22T21:04:01.853Z,36.37
2023-02-22T21:06:31.154Z,35.40
2023-02-22T21:09:07.850Z,37.97
2023-02-22T21:11:36.602Z,40.00
2023-02-22T21:14:05.050Z,34.70
2023-02-22T21:16:37.798Z,33.13
2023-02-22T21:19:08.257Z,32.83
2023-02-22T21:21:37.292Z,35.10
2023-02-22T21:24:07.439Z,33.03
2023-02-22T21:26:36.316Z,31.77
2023-02-22T21:29:16.576Z,36.23
2023-02-22T21:31:45.691Z,37.67
2023-02-22T21:34:20.450Z,39.50
2023-02-22T21:36:48.757Z,36.70
2023-02-22T21:39:20.114Z,40.87
2023-02-22T21:41:52.447Z,35.87
2023-02-22T21:44:20.627Z,42.73
2023-02-22T21:46:50.164Z,47.00
2023-02-22T21:49:22.340Z,34.83
2023-02-22T21:51:52.701Z,39.93
2023-02-22T21:54:22.899Z,36.27
2023-02-22T21:56:51.704Z,37.50
2023-02-22T21:59:23.426Z,40.30
2023-02-22T22:02:07.154Z,33.80
2023-02-22T22:04:35.899Z,39.63
2023-02-22T22:07:04.726Z,36.60
2023-02-22T22:09:37.524Z,37.57
2023-02-22T22:12:06.141Z,35.27
2023-02-22T22:14:35.905Z,33.67
2023-02-22T22:17:05.738Z,37.33
2023-02-22T22:19:39.315Z,33.60
2023-02-22T22:22:07.901Z,30.70
2023-02-22T22:24:41.396Z,36.13
2023-02-22T22:27:13.016Z,35.40
2023-02-22T22:29:41.142Z,35.13
2023-02-22T22:32:10.728Z,32.97
2023-02-22T22:34:39.174Z,35.40
2023-02-22T22:37:08.005Z,29.70
2023-02-22T22:39:38.483Z,33.87
2023-02-22T22:42:06.836Z,30.23
2023-02-22T22:44:42.007Z,32.30
2023-02-22T22:47:12.130Z,31.10
2023-02-22T22:49:40.805Z,31.93
2023-02-22T22:52:09.852Z,32.57
2023-02-22T22:54:39.427Z,31.97
2023-02-22T22:57:07.703Z,33.33
2023-02-22T22:59:36.461Z,29.03
2023-02-22T23:02:10.488Z,30.87
2023-02-22T23:04:38.849Z,32.77
2023-02-22T23:07:07.317Z,35.03
2023-02-22T23:09:38.548Z,30.70
2023-02-22T23:12:17.774Z,36.10
2023-02-22T23:14:47.014Z,35.83
2023-02-22T23:17:30.891Z,32.63
2023-02-22T23:19:59.337Z,31.43
2023-02-22T23:22:27.822Z,32.77
2023-02-22T23:24:55.806Z,31.73
2023-02-22T23:27:25.155Z,34.33
2023-02-22T23:29:53.252Z,32.17
2023-02-22T23:32:21.411Z,36.40
2023-02-22T23:34:50.721Z,28.77
2023-02-22T23:37:20.940Z,29.50
2023-02-22T23:39:49.046Z,31.63
2023-02-22T23:42:19.847Z,30.97
2023-02-22T23:44:49.437Z,31.40
2023-02-22T23:47:17.734Z,29.17
2023-02-22T23:49:49.527Z,31.77
2023-02-22T23:52:24.134Z,33.43
2023-02-22T23:54:53.798Z,31.20
2023-02-22T23:57:22.088Z,33.90
2023-02-22T23:59:51.715Z,28.47
